createdAt,value
2022-08-19T00:02:02.471Z,18.71
2022-08-19T00:04:34.587Z,18.70
2022-08-19T00:07:03.067Z,18.71
2022-08-19T00:09:31.451Z,18.69
2022-08-19T00:12:00.015Z,18.69
2022-08-19T00:14:32.509Z,18.65
2022-08-19T00:17:02.001Z,18.68
2022-08-19T00:19:30.733Z,18.69
2022-08-19T00:21:58.701Z,18.68
2022-08-19T00:24:29.665Z,18.67
2022-08-19T00:27:25.316Z,18.69
2022-08-19T00:29:52.728Z,18.60
2022-08-19T00:32:21.685Z,18.59
2022-08-19T00:34:49.797Z,18.53
2022-08-19T00:37:17.863Z,18.54
2022-08-19T00:39:45.879Z,18.48
2022-08-19T00:42:17.591Z,18.45
2022-08-19T00:44:47.249Z,18.41
2022-08-19T00:47:16.148Z,18.35
2022-08-19T00:49:51.477Z,18.33
2022-08-19T00:52:23.373Z,18.32
2022-08-19T00:54:53.644Z,18.28
2022-08-19T00:57:26.116Z,18.28
2022-08-19T01:00:02.229Z,18.22
2022-08-19T01:02:34.293Z,18.23
2022-08-19T01:05:06.403Z,18.19
2022-08-19T01:07:38.327Z,18.17
2022-08-19T01:10:08.892Z,18.12
2022-08-19T01:12:37.385Z,18.09
2022-08-19T01:15:09.253Z,18.13
2022-08-19T01:17:40.135Z,18.12
2022-08-19T01:20:11.390Z,18.05
2022-08-19T01:22:46.067Z,18.03
2022-08-19T01:25:16.697Z,18.00
2022-08-19T01:27:48.609Z,18.03
2022-08-19T01:30:22.597Z,18.00
2022-08-19T01:32:51.518Z,18.00
2022-08-19T01:35:19.808Z,18.01
2022-08-19T01:37:52.111Z,18.01
2022-08-19T01:40:22.183Z,18.03
2022-08-19T01:42:50.501Z,18.06
2022-08-19T01:45:19.188Z,18.08
2022-08-19T01:47:51.721Z,18.12
2022-08-19T01:50:32.591Z,18.07
2022-08-19T01:53:06.922Z,18.04
2022-08-19T01:55:40.595Z,18.02
2022-08-19T01:58:15.174Z,18.01
2022-08-19T02:00:43.949Z,18.01
2022-08-19T02:03:12.297Z,18.01
2022-08-19T02:05:41.276Z,18.05
2022-08-19T02:08:10.940Z,18.02
2022-08-19T02:10:41.897Z,18.01
2022-08-19T02:13:10.360Z,17.92
2022-08-19T02:15:39.169Z,17.92
2022-08-19T02:18:09.131Z,17.95
2022-08-19T02:20:37.740Z,17.89
2022-08-19T02:23:05.815Z,17.94
2022-08-19T02:25:43.570Z,17.92
2022-08-19T02:28:15.517Z,17.87
2022-08-19T02:30:46.567Z,17.91
2022-08-19T02:33:14.613Z,17.90
2022-08-19T02:35:44.333Z,17.87
2022-08-19T02:38:27.261Z,17.87
2022-08-19T02:40:59.284Z,17.85
2022-08-19T02:43:28.749Z,17.86
2022-08-19T02:45:56.760Z,17.89
2022-08-19T02:48:26.642Z,17.88
2022-08-19T02:50:56.313Z,17.89
2022-08-19T02:53:26.532Z,17.90
2022-08-19T02:55:56.360Z,17.88
2022-08-19T02:58:25.343Z,17.87
2022-08-19T03:00:56.527Z,17.89
2022-08-19T03:03:24.864Z,17.91
2022-08-19T03:05:56.995Z,17.86
2022-08-19T03:08:26.487Z,17.88
2022-08-19T03:10:55.977Z,17.84
2022-08-19T03:13:24.228Z,17.81
2022-08-19T03:15:52.495Z,17.84
2022-08-19T03:18:20.542Z,17.86
2022-08-19T03:20:55.485Z,17.83
2022-08-19T03:23:24.814Z,17.86
2022-08-19T03:25:58.340Z,17.81
2022-08-19T03:28:35.993Z,17.82
2022-08-19T03:31:42.138Z,17.73
2022-08-19T03:33:55.314Z,17.77
2022-08-19T03:36:25.333Z,17.78
2022-08-19T03:38:59.703Z,17.75
2022-08-19T03:41:34.126Z,17.71
2022-08-19T03:44:18.520Z,17.63
2022-08-19T03:46:48.104Z,17.59
2022-08-19T03:49:18.252Z,17.55
2022-08-19T03:51:48.043Z,17.51
2022-08-19T03:54:18.026Z,17.47
2022-08-19T03:56:48.110Z,17.40
2022-08-19T03:59:21.879Z,17.28
2022-08-19T04:01:50.170Z,17.36
2022-08-19T04:04:18.176Z,17.33
2022-08-19T04:06:48.852Z,17.33
2022-08-19T04:09:17.552Z,17.31
2022-08-19T04:11:48.180Z,17.29
2022-08-19T04:14:20.203Z,17.27
2022-08-19T04:16:49.665Z,17.21
2022-08-19T04:19:19.457Z,17.13
2022-08-19T04:21:50.820Z,17.23
2022-08-19T04:24:20.572Z,17.25
2022-08-19T04:26:49.802Z,17.22
2022-08-19T04:29:23.140Z,17.22
2022-08-19T04:31:51.743Z,17.21
2022-08-19T04:34:23.580Z,17.11
2022-08-19T04:36:53.086Z,17.21
2022-08-19T04:39:23.894Z,17.24
2022-08-19T04:42:09.476Z,17.25
2022-08-19T04:44:46.121Z,17.28
2022-08-19T04:47:14.603Z,17.30
2022-08-19T04:49:42.805Z,17.27
2022-08-19T04:52:10.814Z,17.26
2022-08-19T04:54:39.496Z,17.30
2022-08-19T04:57:10.854Z,17.26
2022-08-19T04:59:41.502Z,17.23
2022-08-19T05:02:10.575Z,17.26
2022-08-19T05:04:40.451Z,17.24
2022-08-19T05:07:09.481Z,17.34
2022-08-19T05:09:57.180Z,17.28
2022-08-19T05:12:29.387Z,17.29
2022-08-19T05:15:00.029Z,17.34
2022-08-19T05:17:32.319Z,17.39
2022-08-19T05:20:20.669Z,17.45
2022-08-19T05:22:49.878Z,17.52
2022-08-19T05:25:21.635Z,17.49
2022-08-19T05:27:50.555Z,17.54
2022-08-19T05:30:24.392Z,17.56
2022-08-19T05:33:10.353Z,17.54
2022-08-19T05:35:39.018Z,17.52
2022-08-19T05:38:08.182Z,17.47
2022-08-19T05:40:36.966Z,17.41
2022-08-19T05:43:06.039Z,17.48
2022-08-19T05:45:41.098Z,17.55
2022-08-19T05:48:09.583Z,17.57
2022-08-19T05:50:38.119Z,17.66
2022-08-19T05:53:06.766Z,17.71
2022-08-19T05:55:35.056Z,17.69
2022-08-19T05:58:03.647Z,17.73
2022-08-19T06:00:32.295Z,17.74
2022-08-19T06:03:11.816Z,17.77
2022-08-19T06:05:46.162Z,17.77
2022-08-19T06:08:20.664Z,17.78
2022-08-19T06:11:15.042Z,17.80
2022-08-19T06:13:43.170Z,17.83
2022-08-19T06:16:11.338Z,17.78
2022-08-19T06:18:40.706Z,17.86
2022-08-19T06:21:08.724Z,17.90
2022-08-19T06:23:36.692Z,17.88
2022-08-19T06:26:05.272Z,17.94
2022-08-19T06:28:33.941Z,17.94
2022-08-19T06:31:08.394Z,18.05
2022-08-19T06:33:36.668Z,18.06
2022-08-19T06:36:06.496Z,18.18
2022-08-19T06:38:35.289Z,18.26
2022-08-19T06:41:07.534Z,18.31
2022-08-19T06:43:38.142Z,18.22
2022-08-19T06:46:14.992Z,18.25
2022-08-19T06:48:45.808Z,18.25
2022-08-19T06:51:19.624Z,18.31
2022-08-19T06:53:48.212Z,18.41
2022-08-19T06:56:18.546Z,18.46
2022-08-19T06:58:47.614Z,18.40
2022-08-19T07:01:15.830Z,18.48
2022-08-19T07:03:43.842Z,18.39
2022-08-19T07:06:43.354Z,18.40
2022-08-19T07:09:12.603Z,18.48
2022-08-19T07:11:45.339Z,18.57
2022-08-19T07:14:18.914Z,18.77
2022-08-19T07:16:48.758Z,18.76
2022-08-19T07:19:18.997Z,18.92
2022-08-19T07:21:50.521Z,18.97
2022-08-19T07:24:19.363Z,19.03
2022-08-19T07:26:51.771Z,19.13
2022-08-19T07:29:25.622Z,19.16
2022-08-19T07:32:00.072Z,19.26
2022-08-19T07:34:31.123Z,19.34
2022-08-19T07:37:00.621Z,19.36
2022-08-19T07:39:31.746Z,19.33
2022-08-19T07:42:03.059Z,19.33
2022-08-19T07:44:31.235Z,19.47
2022-08-19T07:47:01.094Z,19.29
2022-08-19T07:49:29.871Z,19.39
2022-08-19T07:52:03.111Z,19.54
2022-08-19T07:54:34.588Z,19.60
2022-08-19T07:57:02.801Z,19.66
2022-08-19T07:59:30.890Z,19.86
2022-08-19T08:02:00.574Z,19.88
2022-08-19T08:04:46.919Z,19.99
2022-08-19T08:07:34.043Z,20.11
2022-08-19T08:10:03.784Z,19.98
2022-08-19T08:12:35.594Z,20.13
2022-08-19T08:15:08.792Z,19.98
2022-08-19T08:17:49.579Z,20.13
2022-08-19T08:20:20.214Z,20.33
2022-08-19T08:23:09.848Z,20.53
2022-08-19T08:25:38.975Z,20.47
2022-08-19T08:28:11.403Z,20.73
2022-08-19T08:30:48.438Z,20.73
2022-08-19T08:33:33.217Z,20.95
2022-08-19T08:36:04.119Z,21.19
2022-08-19T08:38:39.738Z,21.25
2022-08-19T08:41:20.021Z,20.89
2022-08-19T08:43:51.943Z,20.98
2022-08-19T08:46:30.674Z,20.84
2022-08-19T08:49:09.809Z,20.79
2022-08-19T08:54:26.536Z,21.09
2022-08-19T08:56:56.022Z,21.16
2022-08-19T08:59:28.476Z,21.55
2022-08-19T09:01:56.657Z,21.82
2022-08-19T09:04:24.962Z,22.09
2022-08-19T09:07:18.630Z,22.26
2022-08-19T09:10:12.484Z,22.08
2022-08-19T09:12:50.939Z,22.00
2022-08-19T09:15:33.601Z,22.19
2022-08-19T09:18:07.359Z,22.25
2022-08-19T09:20:35.715Z,22.12
2022-08-19T09:23:04.431Z,22.29
2022-08-19T09:25:35.422Z,22.37
2022-08-19T09:28:05.519Z,22.30
2022-08-19T09:30:38.811Z,22.77
2022-08-19T09:33:07.174Z,23.01
2022-08-19T09:35:43.903Z,22.63
2022-08-19T09:38:21.008Z,22.80
2022-08-19T09:40:50.937Z,23.15
2022-08-19T09:43:33.163Z,23.41
2022-08-19T09:46:02.516Z,23.79
2022-08-19T09:48:30.724Z,23.65
2022-08-19T09:51:05.949Z,23.78
2022-08-19T09:53:34.361Z,23.88
2022-08-19T09:56:04.762Z,23.75
2022-08-19T09:58:33.578Z,23.87
2022-08-19T10:01:03.147Z,23.84
2022-08-19T10:03:33.579Z,23.85
2022-08-19T10:06:03.670Z,23.69
2022-08-19T10:08:34.135Z,23.14
2022-08-19T10:11:27.912Z,23.33
2022-08-19T10:13:54.735Z,23.37
2022-08-19T10:16:26.030Z,23.17
2022-08-19T10:18:59.306Z,23.42
2022-08-19T10:21:29.453Z,23.50
2022-08-19T10:24:04.758Z,23.48
2022-08-19T10:26:37.960Z,23.49
2022-08-19T10:29:09.298Z,23.69
2022-08-19T10:32:00.713Z,23.75
2022-08-19T10:34:28.418Z,23.84
2022-08-19T10:37:01.078Z,23.89
2022-08-19T10:39:31.413Z,24.42
2022-08-19T10:42:07.145Z,24.82
2022-08-19T10:44:36.324Z,24.98
2022-08-19T10:47:05.466Z,24.84
2022-08-19T10:50:12.057Z,24.47
2022-08-19T10:52:50.179Z,24.53
2022-08-19T10:55:38.508Z,24.43
2022-08-19T10:58:12.501Z,24.35
2022-08-19T11:00:41.378Z,24.42
2022-08-19T11:03:09.419Z,24.51
2022-08-19T11:05:40.177Z,24.76
2022-08-19T11:08:22.209Z,24.92
2022-08-19T11:10:54.488Z,25.06
2022-08-19T11:13:24.378Z,25.34
2022-08-19T11:16:00.892Z,25.48
2022-08-19T11:18:32.055Z,25.69
2022-08-19T11:21:08.670Z,25.77
2022-08-19T11:23:39.739Z,25.88
2022-08-19T11:26:11.287Z,25.73
2022-08-19T11:28:41.205Z,25.50
2022-08-19T11:31:13.028Z,25.64
2022-08-19T11:33:41.354Z,25.64
2022-08-19T11:36:10.315Z,25.91
2022-08-19T11:38:43.262Z,25.98
2022-08-19T11:41:11.654Z,26.07
2022-08-19T11:43:41.239Z,26.21
2022-08-19T11:46:14.010Z,26.25
2022-08-19T11:48:42.308Z,26.49
2022-08-19T11:51:12.941Z,26.33
2022-08-19T11:53:41.651Z,26.59
2022-08-19T11:56:10.811Z,26.74
2022-08-19T11:58:40.038Z,26.83
2022-08-19T12:01:10.322Z,26.94
2022-08-19T12:03:38.619Z,26.76
2022-08-19T12:06:08.243Z,26.85
2022-08-19T12:08:36.607Z,26.95
2022-08-19T12:11:04.606Z,27.15
2022-08-19T12:13:32.902Z,27.32
2022-08-19T12:16:01.090Z,27.39
2022-08-19T12:18:30.509Z,27.47
2022-08-19T12:20:58.575Z,27.34
2022-08-19T12:23:26.635Z,27.83
2022-08-19T12:25:55.605Z,28.04
2022-08-19T12:28:26.540Z,28.36
2022-08-19T12:30:54.583Z,28.07
2022-08-19T12:33:27.394Z,28.43
2022-08-19T12:36:02.288Z,28.88
2022-08-19T12:38:30.560Z,29.31
2022-08-19T12:41:00.430Z,29.98
2022-08-19T12:43:31.340Z,30.47
2022-08-19T12:45:59.405Z,30.57
2022-08-19T12:48:33.615Z,31.56
2022-08-19T12:51:09.326Z,31.44
2022-08-19T12:53:39.103Z,31.82
2022-08-19T12:56:11.498Z,32.37
2022-08-19T12:58:48.841Z,32.48
2022-08-19T13:01:22.897Z,32.69
2022-08-19T13:03:53.370Z,33.06
2022-08-19T13:06:23.743Z,33.42
2022-08-19T13:08:53.675Z,33.60
2022-08-19T13:11:26.355Z,33.57
2022-08-19T13:13:56.106Z,33.97
2022-08-19T13:16:24.228Z,33.96
2022-08-19T13:18:53.395Z,33.76
2022-08-19T13:21:25.484Z,33.66
2022-08-19T13:23:55.122Z,33.30
2022-08-19T13:26:23.913Z,33.75
2022-08-19T13:29:09.506Z,34.10
2022-08-19T13:31:56.435Z,33.97
2022-08-19T13:34:30.968Z,33.90
2022-08-19T13:37:03.881Z,33.24
2022-08-19T13:39:33.246Z,33.72
2022-08-19T13:42:02.361Z,33.71
2022-08-19T13:44:31.068Z,34.21
2022-08-19T13:47:03.591Z,33.74
2022-08-19T13:49:31.916Z,34.17
2022-08-19T13:52:01.442Z,34.23
2022-08-19T13:54:29.474Z,33.86
2022-08-19T13:56:57.526Z,33.58
2022-08-19T13:59:25.904Z,33.47
2022-08-19T14:01:54.342Z,33.30
2022-08-19T14:04:22.442Z,33.66
2022-08-19T14:06:50.546Z,33.76
2022-08-19T14:09:19.962Z,33.03
2022-08-19T14:11:48.007Z,33.12
2022-08-19T14:14:16.585Z,33.19
2022-08-19T14:16:44.745Z,33.03
2022-08-19T14:19:12.832Z,32.62
2022-08-19T14:21:42.020Z,32.09
2022-08-19T14:24:10.919Z,31.83
2022-08-19T14:26:40.443Z,31.78
2022-08-19T14:29:08.598Z,31.58
2022-08-19T14:31:36.664Z,31.40
2022-08-19T14:34:04.856Z,30.97
2022-08-19T14:36:38.944Z,31.07
2022-08-19T14:39:07.552Z,31.02
2022-08-19T14:41:36.596Z,30.64
2022-08-19T14:44:06.416Z,30.65
2022-08-19T14:46:34.562Z,30.50
2022-08-19T14:49:09.245Z,30.48
2022-08-19T14:51:37.737Z,30.52
2022-08-19T14:54:05.897Z,30.60
2022-08-19T14:56:33.880Z,30.37
2022-08-19T14:59:02.080Z,30.32
2022-08-19T15:01:31.729Z,30.63
2022-08-19T15:04:00.049Z,30.38
2022-08-19T15:06:29.344Z,30.06
2022-08-19T15:09:00.750Z,29.92
2022-08-19T15:11:33.374Z,29.73
2022-08-19T15:14:02.291Z,29.64
2022-08-19T15:16:31.715Z,29.75
2022-08-19T15:19:01.102Z,29.84
2022-08-19T15:21:30.232Z,30.05
2022-08-19T15:23:59.906Z,29.96
2022-08-19T15:26:29.000Z,29.62
2022-08-19T15:28:57.105Z,29.29
2022-08-19T15:31:28.812Z,29.42
2022-08-19T15:33:59.315Z,29.24
2022-08-19T15:36:28.491Z,29.04
2022-08-19T15:38:56.905Z,29.19
2022-08-19T15:41:27.392Z,29.16
2022-08-19T15:43:58.690Z,29.19
2022-08-19T15:46:29.434Z,28.82
2022-08-19T15:49:00.545Z,28.89
2022-08-19T15:51:31.045Z,28.85
2022-08-19T15:53:59.663Z,28.82
2022-08-19T15:56:57.876Z,29.02
2022-08-19T15:59:46.831Z,29.17
2022-08-19T16:02:33.172Z,29.10
2022-08-19T16:05:21.166Z,29.19
2022-08-19T16:07:49.202Z,28.86
2022-08-19T16:10:27.431Z,28.93
2022-08-19T16:12:59.083Z,28.76
2022-08-19T16:15:28.387Z,28.69
2022-08-19T16:17:57.846Z,28.65
2022-08-19T16:20:27.849Z,28.46
2022-08-19T16:22:58.235Z,28.28
2022-08-19T16:25:28.898Z,28.16
2022-08-19T16:28:07.860Z,28.07
2022-08-19T16:30:38.600Z,28.03
2022-08-19T16:33:07.733Z,28.07
2022-08-19T16:35:37.436Z,28.11
2022-08-19T16:38:06.918Z,28.02
2022-08-19T16:40:36.113Z,28.23
2022-08-19T16:43:04.341Z,28.12
2022-08-19T16:45:32.833Z,28.04
2022-08-19T16:48:01.019Z,27.98
2022-08-19T16:50:48.398Z,28.02
2022-08-19T16:53:24.614Z,27.93
2022-08-19T16:55:57.700Z,27.66
2022-08-19T16:58:28.499Z,27.60
2022-08-19T17:01:01.893Z,27.69
2022-08-19T17:03:35.726Z,27.61
2022-08-19T17:06:16.179Z,27.54
2022-08-19T17:08:51.324Z,27.29
2022-08-19T17:11:19.873Z,27.17
2022-08-19T17:13:49.412Z,27.09
2022-08-19T17:16:18.024Z,26.93
2022-08-19T17:18:46.432Z,26.78
2022-08-19T17:21:14.513Z,26.70
2022-08-19T17:23:44.054Z,26.62
2022-08-19T17:26:18.001Z,26.46
2022-08-19T17:28:47.219Z,26.33
2022-08-19T17:31:15.324Z,26.22
2022-08-19T17:33:48.226Z,26.13
2022-08-19T17:36:17.774Z,25.98
2022-08-19T17:38:46.228Z,25.82
2022-08-19T17:41:15.614Z,25.69
2022-08-19T17:43:45.126Z,25.62
2022-08-19T17:46:17.641Z,25.46
2022-08-19T17:48:51.897Z,25.38
2022-08-19T17:51:23.335Z,25.32
2022-08-19T17:53:53.726Z,25.28
2022-08-19T17:56:23.529Z,25.18
2022-08-19T17:59:00.145Z,25.04
2022-08-19T18:01:36.965Z,25.06
2022-08-19T18:04:19.618Z,24.97
2022-08-19T18:06:52.921Z,24.91
2022-08-19T18:09:24.575Z,24.88
2022-08-19T18:11:56.793Z,24.83
2022-08-19T18:14:33.393Z,24.74
2022-08-19T18:17:06.139Z,24.64
2022-08-19T18:19:41.216Z,24.56
2022-08-19T18:22:13.444Z,24.51
2022-08-19T18:24:42.365Z,24.44
2022-08-19T18:27:11.730Z,24.33
2022-08-19T18:29:40.185Z,24.25
2022-08-19T18:32:12.599Z,24.21
2022-08-19T18:34:41.945Z,24.16
2022-08-19T18:37:10.318Z,24.11
2022-08-19T18:39:55.741Z,24.04
2022-08-19T18:42:43.293Z,23.93
2022-08-19T18:45:29.759Z,23.85
2022-08-19T18:48:27.511Z,23.72
2022-08-19T18:51:01.188Z,23.63
2022-08-19T18:53:32.274Z,23.55
2022-08-19T18:56:01.061Z,23.46
2022-08-19T18:58:34.635Z,23.41
2022-08-19T19:01:11.322Z,23.31
2022-08-19T19:03:41.543Z,23.21
2022-08-19T19:06:10.168Z,23.10
2022-08-19T19:08:38.778Z,23.12
2022-08-19T19:11:07.323Z,23.11
2022-08-19T19:13:39.728Z,23.06
2022-08-19T19:16:09.567Z,23.00
2022-08-19T19:18:37.850Z,22.95
2022-08-19T19:21:06.481Z,22.82
2022-08-19T19:23:34.569Z,22.85
2022-08-19T19:26:02.542Z,22.78
2022-08-19T19:28:30.544Z,22.71
2022-08-19T19:30:59.962Z,22.63
2022-08-19T19:33:28.937Z,22.53
2022-08-19T19:35:57.055Z,22.47
2022-08-19T19:38:25.711Z,22.38
2022-08-19T19:40:53.724Z,22.28
2022-08-19T19:43:21.871Z,22.23
2022-08-19T19:45:49.968Z,22.19
2022-08-19T19:48:19.439Z,22.12
2022-08-19T19:50:51.266Z,22.06
2022-08-19T19:53:22.671Z,21.99
2022-08-19T19:55:54.693Z,21.90
2022-08-19T19:58:28.673Z,21.85
2022-08-19T20:00:58.723Z,21.78
2022-08-19T20:03:29.855Z,21.72
2022-08-19T20:05:59.467Z,21.63
2022-08-19T20:08:45.980Z,21.57
2022-08-19T20:11:25.851Z,21.50
2022-08-19T20:13:53.989Z,21.46
2022-08-19T20:16:25.299Z,21.41
2022-08-19T20:18:55.736Z,21.36
2022-08-19T20:21:27.440Z,21.31
2022-08-19T20:24:08.916Z,21.28
2022-08-19T20:26:38.234Z,21.24
2022-08-19T20:29:13.444Z,21.20
2022-08-19T20:31:57.341Z,21.20
2022-08-19T20:34:27.656Z,21.17
2022-08-19T20:36:55.863Z,21.09
2022-08-19T20:39:23.965Z,21.08
2022-08-19T20:41:51.999Z,21.05
2022-08-19T20:44:19.967Z,21.05
2022-08-19T20:46:54.477Z,20.99
2022-08-19T20:49:27.475Z,20.96
2022-08-19T20:51:58.252Z,20.96
2022-08-19T20:54:27.083Z,20.95
2022-08-19T20:56:55.435Z,20.82
2022-08-19T20:59:24.206Z,20.91
2022-08-19T21:01:52.650Z,20.87
2022-08-19T21:04:22.241Z,20.83
2022-08-19T21:06:51.253Z,20.79
2022-08-19T21:09:20.695Z,20.73
2022-08-19T21:11:49.538Z,20.73
2022-08-19T21:14:19.493Z,20.64
2022-08-19T21:16:47.714Z,20.63
2022-08-19T21:19:17.646Z,20.58
2022-08-19T21:21:48.244Z,20.45
2022-08-19T21:24:16.546Z,20.53
2022-08-19T21:26:49.446Z,20.51
2022-08-19T21:29:19.496Z,20.44
2022-08-19T21:31:48.979Z,20.43
2022-08-19T21:34:17.329Z,20.39
2022-08-19T21:36:45.825Z,20.37
2022-08-19T21:39:13.964Z,20.35
2022-08-19T21:41:43.752Z,20.36
2022-08-19T21:44:13.361Z,20.31
2022-08-19T21:46:41.605Z,20.32
2022-08-19T21:49:09.720Z,20.29
2022-08-19T21:51:38.388Z,20.26
2022-08-19T21:54:06.652Z,20.22
2022-08-19T21:56:35.049Z,20.15
2022-08-19T21:59:03.091Z,20.17
2022-08-19T22:01:32.532Z,20.12
2022-08-19T22:04:00.783Z,20.10
2022-08-19T22:06:28.813Z,20.10
2022-08-19T22:08:56.962Z,20.06
2022-08-19T22:11:25.672Z,20.02
2022-08-19T22:13:56.401Z,20.06
2022-08-19T22:16:25.506Z,20.03
2022-08-19T22:18:54.880Z,19.99
2022-08-19T22:21:37.432Z,19.97
2022-08-19T22:24:09.247Z,19.94
2022-08-19T22:26:37.210Z,19.89
2022-08-19T22:29:05.266Z,19.84
2022-08-19T22:31:33.251Z,19.81
2022-08-19T22:34:03.687Z,19.78
2022-08-19T22:36:32.469Z,19.70
2022-08-19T22:39:00.661Z,19.71
2022-08-19T22:41:28.770Z,19.67
2022-08-19T22:43:57.493Z,19.67
2022-08-19T22:46:25.482Z,19.65
2022-08-19T22:49:00.887Z,19.63
2022-08-19T22:51:48.546Z,19.65
2022-08-19T22:54:16.655Z,19.68
2022-08-19T22:56:44.934Z,19.66
2022-08-19T22:59:13.017Z,19.74
2022-08-19T23:01:41.778Z,19.73
2022-08-19T23:04:10.100Z,19.83
2022-08-19T23:06:42.034Z,19.83
2022-08-19T23:09:16.755Z,19.85
2022-08-19T23:11:45.910Z,19.84
2022-08-19T23:14:14.751Z,19.83
2022-08-19T23:16:50.399Z,19.80
2022-08-19T23:19:19.466Z,19.74
2022-08-19T23:21:49.545Z,19.66
2022-08-19T23:24:17.628Z,19.61
2022-08-19T23:26:59.612Z,19.52
2022-08-19T23:29:45.515Z,19.51
2022-08-19T23:32:17.306Z,19.49
2022-08-19T23:34:45.783Z,19.44
2022-08-19T23:37:15.999Z,19.48
2022-08-19T23:39:45.140Z,19.49
2022-08-19T23:42:13.882Z,19.48
2022-08-19T23:44:51.600Z,19.44
2022-08-19T23:47:21.301Z,19.37
2022-08-19T23:49:49.635Z,19.34
2022-08-19T23:52:19.240Z,19.32
2022-08-19T23:54:47.322Z,19.31
2022-08-19T23:57:15.348Z,19.30
2022-08-19T23:59:45.318Z,19.30
